GLO1746 SBBR-SBGO
Flight info
| Callsign | GLO1746 |
|---|---|
| Flight time | 0h 20m |
| Altitude | 18000 |
| Route | SIREM DCT GNV |
| Aircraft | B738/M-SDFGIKLORWXY/LB1 |
Departure
| Time | 2026-05-08 20:46 |
|---|---|
| Airport | Presidente Juscelino Kubitschek International Airport (SBBR) |
Arrival
| Time | 2026-05-08 21:07 |
|---|---|
| Airport | Santa Genoveva International Airport (SBGO) |
| Time | Latitude | Longitude | Altitude | Speed | Heading |
|---|---|---|---|---|---|
| 2026-05-08 20:36 | -15.86708 | -47.91892 | 3470 ft | 0 kts | 176° |
| 2026-05-08 20:37 | -15.86706 | -47.91892 | 3470 ft | 3 kts | 176° |
| 2026-05-08 20:37 | -15.86679 | -47.91893 | 3471 ft | 4 kts | 179° |
| 2026-05-08 20:37 | -15.86652 | -47.91896 | 3471 ft | 4 kts | 160° |
| 2026-05-08 20:38 | -15.86633 | -47.91908 | 3467 ft | 4 kts | 133° |
| 2026-05-08 20:38 | -15.86620 | -47.91931 | 3470 ft | 4 kts | 97° |
| 2026-05-08 20:38 | -15.86621 | -47.91958 | 3469 ft | 4 kts | 83° |
| 2026-05-08 20:38 | -15.86622 | -47.91967 | 3469 ft | 0 kts | 86° |
| 2026-05-08 20:40 | -15.86621 | -47.91952 | 3469 ft | 5 kts | 86° |
| 2026-05-08 20:40 | -15.86617 | -47.91887 | 3470 ft | 13 kts | 86° |
| 2026-05-08 20:41 | -15.86610 | -47.91780 | 3470 ft | 16 kts | 86° |
| 2026-05-08 20:41 | -15.86675 | -47.91712 | 3471 ft | 15 kts | 176° |
| 2026-05-08 20:41 | -15.86779 | -47.91705 | 3471 ft | 16 kts | 176° |
| 2026-05-08 20:41 | -15.86906 | -47.91696 | 3471 ft | 21 kts | 176° |
| 2026-05-08 20:42 | -15.87071 | -47.91685 | 3471 ft | 26 kts | 176° |
| 2026-05-08 20:42 | -15.87266 | -47.91672 | 3471 ft | 29 kts | 176° |
| 2026-05-08 20:42 | -15.87460 | -47.91658 | 3470 ft | 27 kts | 176° |
| 2026-05-08 20:42 | -15.87641 | -47.91646 | 3463 ft | 23 kts | 176° |
| 2026-05-08 20:43 | -15.87737 | -47.91685 | 3462 ft | 15 kts | 257° |
| 2026-05-08 20:43 | -15.87744 | -47.91793 | 3464 ft | 16 kts | 266° |
| 2026-05-08 20:43 | -15.87752 | -47.91926 | 3467 ft | 21 kts | 266° |
| 2026-05-08 20:43 | -15.87763 | -47.92090 | 3470 ft | 25 kts | 266° |
| 2026-05-08 20:44 | -15.87775 | -47.92281 | 3473 ft | 28 kts | 266° |
| 2026-05-08 20:44 | -15.87788 | -47.92487 | 3475 ft | 28 kts | 266° |
| 2026-05-08 20:44 | -15.87801 | -47.92682 | 3477 ft | 26 kts | 266° |
| 2026-05-08 20:44 | -15.87813 | -47.92866 | 3480 ft | 25 kts | 266° |
| 2026-05-08 20:45 | -15.87825 | -47.93052 | 3482 ft | 27 kts | 266° |
| 2026-05-08 20:45 | -15.87833 | -47.93185 | 3483 ft | 28 kts | 266° |
| 2026-05-08 20:45 | -15.87923 | -47.93366 | 3498 ft | 24 kts | 154° |
| 2026-05-08 20:45 | -15.88005 | -47.93227 | 3487 ft | 23 kts | 116° |
| 2026-05-08 20:46 | -15.88004 | -47.93016 | 3482 ft | 50 kts | 86° |
| 2026-05-08 20:46 | -15.87964 | -47.92408 | 3478 ft | 117 kts | 86° |
| 2026-05-08 20:46 | -15.87897 | -47.91345 | 3490 ft | 169 kts | 86° |
| 2026-05-08 20:46 | -15.87824 | -47.90157 | 4285 ft | 164 kts | 93° |
| 2026-05-08 20:47 | -15.88323 | -47.89050 | 4789 ft | 185 kts | 141° |
| 2026-05-08 20:47 | -15.89552 | -47.88559 | 5528 ft | 191 kts | 167° |
| 2026-05-08 20:47 | -15.90810 | -47.88273 | 6386 ft | 185 kts | 165° |
| 2026-05-08 20:47 | -15.92096 | -47.88050 | 6959 ft | 199 kts | 184° |
| 2026-05-08 20:48 | -15.93438 | -47.88631 | 7172 ft | 224 kts | 221° |
| 2026-05-08 20:48 | -15.94547 | -47.89870 | 7355 ft | 246 kts | 230° |
| 2026-05-08 20:48 | -15.95703 | -47.91297 | 7530 ft | 270 kts | 231° |
| 2026-05-08 20:48 | -15.96952 | -47.92854 | 7859 ft | 290 kts | 231° |
| 2026-05-08 20:49 | -15.98255 | -47.94475 | 8693 ft | 292 kts | 231° |
| 2026-05-08 20:49 | -15.99560 | -47.96096 | 9573 ft | 292 kts | 231° |
| 2026-05-08 20:49 | -16.00871 | -47.97718 | 10377 ft | 296 kts | 231° |
| 2026-05-08 20:49 | -16.02237 | -47.99408 | 10674 ft | 318 kts | 231° |
| 2026-05-08 20:50 | -16.03715 | -48.01235 | 10844 ft | 342 kts | 231° |
| 2026-05-08 20:50 | -16.05277 | -48.03160 | 11354 ft | 352 kts | 231° |
| 2026-05-08 20:50 | -16.06865 | -48.05117 | 12029 ft | 355 kts | 231° |
| 2026-05-08 20:50 | -16.08469 | -48.07091 | 12712 ft | 359 kts | 230° |
| 2026-05-08 20:51 | -16.10092 | -48.09090 | 13363 ft | 364 kts | 230° |
| 2026-05-08 20:51 | -16.11737 | -48.11115 | 13974 ft | 369 kts | 230° |
| 2026-05-08 20:51 | -16.13402 | -48.13166 | 14538 ft | 373 kts | 230° |
| 2026-05-08 20:51 | -16.15083 | -48.15237 | 15118 ft | 376 kts | 230° |
| 2026-05-08 20:52 | -16.16775 | -48.17323 | 15701 ft | 379 kts | 230° |
| 2026-05-08 20:52 | -16.18484 | -48.19430 | 16268 ft | 383 kts | 230° |
| 2026-05-08 20:52 | -16.20208 | -48.21556 | 16836 ft | 387 kts | 230° |
| 2026-05-08 20:52 | -16.21953 | -48.23709 | 17380 ft | 391 kts | 230° |
| 2026-05-08 20:53 | -16.23716 | -48.25884 | 17883 ft | 396 kts | 230° |
| 2026-05-08 20:53 | -16.25516 | -48.28106 | 17984 ft | 408 kts | 229° |
| 2026-05-08 20:53 | -16.27374 | -48.30401 | 17998 ft | 420 kts | 230° |
| 2026-05-08 20:53 | -16.29264 | -48.32734 | 17998 ft | 423 kts | 230° |
| 2026-05-08 20:54 | -16.31133 | -48.35044 | 17457 ft | 427 kts | 230° |
| 2026-05-08 20:54 | -16.33048 | -48.37412 | 16917 ft | 423 kts | 230° |
| 2026-05-08 20:54 | -16.34934 | -48.39745 | 16359 ft | 418 kts | 230° |
| 2026-05-08 20:54 | -16.36795 | -48.42047 | 15825 ft | 414 kts | 230° |
| 2026-05-08 20:55 | -16.38640 | -48.44331 | 15283 ft | 410 kts | 230° |
| 2026-05-08 20:55 | -16.40467 | -48.46592 | 14742 ft | 406 kts | 230° |
| 2026-05-08 20:55 | -16.42276 | -48.48832 | 14208 ft | 403 kts | 231° |
| 2026-05-08 20:55 | -16.44071 | -48.51055 | 13671 ft | 400 kts | 231° |
| 2026-05-08 20:56 | -16.45828 | -48.53232 | 13442 ft | 387 kts | 231° |
| 2026-05-08 20:56 | -16.47544 | -48.55360 | 13043 ft | 380 kts | 231° |
| 2026-05-08 20:56 | -16.49231 | -48.57452 | 12576 ft | 375 kts | 231° |
| 2026-05-08 20:56 | -16.50901 | -48.59524 | 12127 ft | 371 kts | 231° |
| 2026-05-08 20:57 | -16.52557 | -48.61578 | 11598 ft | 370 kts | 231° |
| 2026-05-08 20:57 | -16.54203 | -48.63620 | 11137 ft | 366 kts | 231° |
| 2026-05-08 20:57 | -16.55763 | -48.65661 | 10955 ft | 354 kts | 235° |
| 2026-05-08 20:57 | -16.57127 | -48.67751 | 10788 ft | 343 kts | 238° |
| 2026-05-08 20:58 | -16.58399 | -48.69813 | 10625 ft | 333 kts | 239° |
| 2026-05-08 20:58 | -16.59625 | -48.71818 | 10498 ft | 323 kts | 238° |
| 2026-05-08 20:58 | -16.60817 | -48.73757 | 10356 ft | 313 kts | 238° |
| 2026-05-08 20:58 | -16.61984 | -48.75639 | 10221 ft | 304 kts | 238° |
| 2026-05-08 20:59 | -16.63120 | -48.77459 | 10109 ft | 295 kts | 238° |
| 2026-05-08 20:59 | -16.64227 | -48.79227 | 9967 ft | 288 kts | 238° |
| 2026-05-08 20:59 | -16.65320 | -48.80970 | 9668 ft | 287 kts | 238° |
| 2026-05-08 20:59 | -16.66412 | -48.82709 | 9372 ft | 285 kts | 238° |
| 2026-05-08 21:00 | -16.67496 | -48.84435 | 9079 ft | 284 kts | 238° |
| 2026-05-08 21:00 | -16.68576 | -48.86153 | 8799 ft | 283 kts | 238° |
| 2026-05-08 21:00 | -16.69653 | -48.87866 | 8495 ft | 282 kts | 238° |
| 2026-05-08 21:00 | -16.70724 | -48.89571 | 8220 ft | 281 kts | 238° |
| 2026-05-08 21:01 | -16.71793 | -48.91271 | 7941 ft | 280 kts | 238° |
| 2026-05-08 21:01 | -16.72860 | -48.92970 | 7657 ft | 279 kts | 238° |
| 2026-05-08 21:01 | -16.73920 | -48.94657 | 7378 ft | 278 kts | 238° |
| 2026-05-08 21:01 | -16.74977 | -48.96340 | 7153 ft | 275 kts | 239° |
| 2026-05-08 21:02 | -16.75674 | -48.98143 | 6983 ft | 266 kts | 266° |
| 2026-05-08 21:02 | -16.75485 | -49.00029 | 6716 ft | 262 kts | 290° |
| 2026-05-08 21:02 | -16.74713 | -49.01728 | 6447 ft | 259 kts | 301° |
| 2026-05-08 21:02 | -16.73791 | -49.03347 | 6118 ft | 259 kts | 302° |
| 2026-05-08 21:03 | -16.72873 | -49.04940 | 5800 ft | 254 kts | 302° |
| 2026-05-08 21:03 | -16.71975 | -49.06508 | 5533 ft | 250 kts | 302° |
| 2026-05-08 21:03 | -16.71095 | -49.08052 | 5235 ft | 245 kts | 302° |
| 2026-05-08 21:03 | -16.70244 | -49.09557 | 4942 ft | 237 kts | 302° |
| 2026-05-08 21:04 | -16.69694 | -49.10532 | 4750 ft | 233 kts | 302° |
| 2026-05-08 21:04 | -16.68886 | -49.11967 | 4446 ft | 225 kts | 302° |
| 2026-05-08 21:04 | -16.68116 | -49.13338 | 4153 ft | 211 kts | 302° |
| 2026-05-08 21:04 | -16.67396 | -49.14619 | 3898 ft | 199 kts | 302° |
| 2026-05-08 21:05 | -16.66741 | -49.15789 | 3770 ft | 174 kts | 302° |
| 2026-05-08 21:05 | -16.66172 | -49.16804 | 3570 ft | 153 kts | 301° |
| 2026-05-08 21:05 | -16.65650 | -49.17733 | 3312 ft | 146 kts | 301° |
| 2026-05-08 21:05 | -16.65130 | -49.18660 | 3085 ft | 149 kts | 302° |
| 2026-05-08 21:06 | -16.64611 | -49.19595 | 2891 ft | 148 kts | 302° |
| 2026-05-08 21:06 | -16.64086 | -49.20523 | 2640 ft | 150 kts | 301° |
| 2026-05-08 21:06 | -16.63562 | -49.21460 | 2462 ft | 144 kts | 301° |
| 2026-05-08 21:06 | -16.63150 | -49.22191 | 2455 ft | 87 kts | 300° |
| 2026-05-08 21:07 | -16.62942 | -49.22533 | 2463 ft | 25 kts | 319° |
| 2026-05-08 21:07 | -16.62802 | -49.22636 | 2463 ft | 22 kts | 328° |
| 2026-05-08 21:07 | -16.62748 | -49.22566 | 2460 ft | 18 kts | 119° |
| 2026-05-08 21:07 | -16.62811 | -49.22453 | 2459 ft | 18 kts | 120° |
| 2026-05-08 21:08 | -16.62872 | -49.22344 | 2452 ft | 17 kts | 120° |
| 2026-05-08 21:08 | -16.62932 | -49.22239 | 2449 ft | 16 kts | 120° |
| 2026-05-08 21:08 | -16.62982 | -49.22134 | 2445 ft | 17 kts | 107° |
| 2026-05-08 21:08 | -16.62989 | -49.22009 | 2447 ft | 18 kts | 81° |
| 2026-05-08 21:09 | -16.62964 | -49.21886 | 2449 ft | 17 kts | 77° |
| 2026-05-08 21:09 | -16.62938 | -49.21768 | 2454 ft | 16 kts | 77° |
| 2026-05-08 21:09 | -16.62919 | -49.21654 | 2464 ft | 16 kts | 103° |
| 2026-05-08 21:09 | -16.63005 | -49.21593 | 2467 ft | 15 kts | 153° |
| 2026-05-08 21:10 | -16.63074 | -49.21535 | 2463 ft | 9 kts | 97° |
| 2026-05-08 21:10 | -16.63043 | -49.21487 | 2461 ft | 2 kts | 49° |
| 2026-05-08 21:10 | -16.63039 | -49.21482 | 2461 ft | 0 kts | 49° |